createdAt,value
2018-04-13T00:05:32.000Z,54
2018-04-13T00:15:32.000Z,53.7
2018-04-13T00:25:32.000Z,53.9
2018-04-13T00:35:32.000Z,54
2018-04-13T00:45:32.000Z,53.6
2018-04-13T00:55:33.000Z,53.8
2018-04-13T01:15:33.000Z,54.1
2018-04-13T01:25:33.000Z,54.1
2018-04-13T01:35:33.000Z,54
2018-04-13T01:45:33.000Z,54.1
2018-04-13T01:55:33.000Z,54.2
2018-04-13T02:05:33.000Z,54.1
2018-04-13T02:15:33.000Z,53.9
2018-04-13T02:25:33.000Z,53.7
2018-04-13T02:35:33.000Z,53.5
2018-04-13T02:45:33.000Z,53.4
2018-04-13T02:55:33.000Z,53.7
2018-04-13T03:05:33.000Z,53.4
2018-04-13T03:15:33.000Z,52.9
2018-04-13T03:25:33.000Z,52.8
2018-04-13T03:35:33.000Z,52.8
2018-04-13T03:45:33.000Z,52.7
2018-04-13T03:55:33.000Z,52.7
2018-04-13T04:05:33.000Z,52.4
2018-04-13T04:15:33.000Z,52.5
2018-04-13T04:25:33.000Z,52.2
2018-04-13T04:35:33.000Z,52.2
2018-04-13T04:45:33.000Z,52.3
2018-04-13T04:55:33.000Z,52.4
2018-04-13T05:05:33.000Z,52.7
2018-04-13T05:15:33.000Z,52.7
2018-04-13T05:25:33.000Z,52.4
2018-04-13T05:35:33.000Z,52.5
2018-04-13T05:45:33.000Z,52.4
2018-04-13T05:55:33.000Z,52.7
2018-04-13T06:05:33.000Z,52.7
2018-04-13T06:15:33.000Z,53
2018-04-13T06:25:33.000Z,52.9
2018-04-13T06:35:33.000Z,52.5
2018-04-13T06:45:33.000Z,52.4
2018-04-13T06:55:33.000Z,52
2018-04-13T07:05:33.000Z,51.9
2018-04-13T07:15:33.000Z,51.7
2018-04-13T07:25:33.000Z,51.7
2018-04-13T07:35:33.000Z,50.8
2018-04-13T07:45:33.000Z,50
2018-04-13T07:55:33.000Z,49.8
2018-04-13T08:05:34.000Z,49.6
2018-04-13T08:15:34.000Z,49.5
2018-04-13T08:25:34.000Z,50.3
2018-04-13T08:35:34.000Z,50.2
2018-04-13T08:45:34.000Z,50.4
2018-04-13T08:55:34.000Z,50.6
2018-04-13T09:05:34.000Z,50.7
2018-04-13T09:15:34.000Z,50.7
2018-04-13T09:25:34.000Z,50.8
2018-04-13T09:35:34.000Z,50.7
2018-04-13T09:45:34.000Z,50.6
2018-04-13T09:55:34.000Z,50.7
2018-04-13T10:05:34.000Z,50.6
2018-04-13T10:15:34.000Z,50.8
2018-04-13T10:25:34.000Z,51
2018-04-13T10:35:34.000Z,51
2018-04-13T10:45:34.000Z,51
2018-04-13T10:55:34.000Z,50.9
2018-04-13T11:05:34.000Z,50.8
2018-04-13T11:15:34.000Z,50.7
2018-04-13T11:25:34.000Z,50.9
2018-04-13T11:35:34.000Z,51.2
2018-04-13T11:45:34.000Z,51.2
2018-04-13T11:55:34.000Z,50.9
2018-04-13T12:05:34.000Z,50.5
2018-04-13T12:15:34.000Z,50.3
2018-04-13T12:25:34.000Z,49.9
2018-04-13T12:35:34.000Z,50.3
2018-04-13T12:45:34.000Z,50.4
2018-04-13T12:55:34.000Z,50.2
2018-04-13T13:05:35.000Z,50.2
2018-04-13T13:15:34.000Z,51.1
2018-04-13T13:25:34.000Z,52.2
2018-04-13T13:35:34.000Z,52.7
2018-04-13T13:45:34.000Z,52.8
2018-04-13T13:55:34.000Z,52
2018-04-13T14:05:34.000Z,51.5
2018-04-13T14:15:34.000Z,51.5
2018-04-13T14:25:34.000Z,51.6
2018-04-13T14:35:34.000Z,51.8
2018-04-13T14:45:34.000Z,52.4
2018-04-13T14:55:35.000Z,51.8
2018-04-13T15:05:35.000Z,51.7
2018-04-13T15:15:35.000Z,51.7
2018-04-13T15:25:35.000Z,52
2018-04-13T15:35:35.000Z,52.1
2018-04-13T15:55:35.000Z,53.2
2018-04-13T16:05:35.000Z,54.6
2018-04-13T16:15:36.000Z,54.4
2018-04-13T16:25:35.000Z,54.2
2018-04-13T16:35:36.000Z,54.3
2018-04-13T16:55:35.000Z,53.8
2018-04-13T17:05:35.000Z,53.6
2018-04-13T17:15:36.000Z,53.5
2018-04-13T17:25:37.000Z,53.5
2018-04-13T17:35:35.000Z,53.8
2018-04-13T17:45:35.000Z,54.3
2018-04-13T17:55:35.000Z,54.5
2018-04-13T18:05:35.000Z,54.6
2018-04-13T18:15:35.000Z,55
2018-04-13T18:25:35.000Z,55.1
2018-04-13T18:35:35.000Z,55.3
2018-04-13T18:45:35.000Z,55.4
2018-04-13T18:55:35.000Z,55.2
2018-04-13T19:05:35.000Z,55.4
2018-04-13T19:15:35.000Z,55.5
2018-04-13T19:25:35.000Z,55.5
2018-04-13T19:35:35.000Z,55.6
2018-04-13T19:45:35.000Z,55.5
2018-04-13T19:55:35.000Z,55.6
2018-04-13T20:05:35.000Z,55.5
2018-04-13T20:15:35.000Z,55
2018-04-13T20:25:35.000Z,55.2
2018-04-13T20:35:35.000Z,55.3
2018-04-13T20:45:35.000Z,55.5
2018-04-13T20:55:35.000Z,55.6
2018-04-13T21:05:36.000Z,55.6
2018-04-13T21:15:36.000Z,55.7
2018-04-13T21:25:38.000Z,55.6
2018-04-13T21:35:35.000Z,55.8
2018-04-13T21:45:35.000Z,55.8
2018-04-13T21:55:36.000Z,55.6
2018-04-13T22:05:39.000Z,49.6
2018-04-13T22:15:37.000Z,48.7
2018-04-13T22:25:36.000Z,48.4
2018-04-13T22:35:36.000Z,48.5
2018-04-13T22:45:36.000Z,48.8
2018-04-13T22:55:36.000Z,48.5
2018-04-13T23:05:36.000Z,48.2
2018-04-13T23:15:36.000Z,48.1
2018-04-13T23:25:36.000Z,48
2018-04-13T23:35:36.000Z,48
2018-04-13T23:45:36.000Z,47.9
2018-04-13T23:55:36.000Z,47.4
